Time;durP1;ratioP1;P1;durP2;ratioP2;P2;SDS_P1;SDS_P2;PMS_P1;PMS_P2;Temp;Humidity;BMP_temperature;BMP_pressure;BME280_temperature;BME280_humidity;BME280_pressure;Samples;Min_cycle;Max_cycle;Signal;HPM_P1;HPM_P2
2023/10/15 00:00:13;;;;;;;0.15;0.15;;;9.10;99.90;;;;;;5027804;28;20028;-88
2023/10/15 00:02:41;;;;;;;0.30;0.30;;;9.10;99.90;;;;;;5028162;28;20481;-89
2023/10/15 00:05:08;;;;;;;0.35;0.20;;;9.20;99.90;;;;;;5042666;28;20033;-88
2023/10/15 00:07:34;;;;;;;0.10;0.10;;;9.20;99.90;;;;;;5028433;28;20370;-90
2023/10/15 00:10:00;;;;;;;0.35;0.20;;;9.30;99.90;;;;;;5034903;28;20021;-89
2023/10/15 00:12:30;;;;;;;0.40;0.32;;;9.30;99.90;;;;;;5027426;28;20861;-90
2023/10/15 00:14:55;;;;;;;0.15;0.15;;;9.30;99.90;;;;;;5045708;28;20499;-89
2023/10/15 00:17:24;;;;;;;0.10;0.10;;;9.40;99.90;;;;;;5028434;28;20068;-89
2023/10/15 00:19:49;;;;;;;0.30;0.30;;;9.50;99.90;;;;;;5045150;28;20063;-90
2023/10/15 00:22:15;;;;;;;0.10;0.10;;;9.40;99.90;;;;;;5063202;28;20044;-90
2023/10/15 00:24:43;;;;;;;0.17;0.17;;;9.20;99.90;;;;;;5068822;28;20129;-89
2023/10/15 00:27:08;;;;;;;0.10;0.10;;;9.10;99.90;;;;;;5049490;28;20302;-89
2023/10/15 00:29:35;;;;;;;0.10;0.10;;;9.20;99.90;;;;;;5028921;28;20024;-90
2023/10/15 00:32:03;;;;;;;0.20;0.20;;;9.30;99.90;;;;;;5044526;28;20021;-90
2023/10/15 00:34:30;;;;;;;0.28;0.28;;;9.30;99.90;;;;;;5029298;28;20529;-90
2023/10/15 00:36:56;;;;;;;0.17;0.17;;;9.30;99.90;;;;;;5026961;28;20380;-89
2023/10/15 00:39:24;;;;;;;0.10;0.10;;;9.30;99.90;;;;;;5027026;28;20021;-90
2023/10/15 00:41:53;;;;;;;0.10;0.10;;;9.40;99.90;;;;;;5042834;28;20094;-89
2023/10/15 00:44:20;;;;;;;0.10;0.10;;;9.50;99.90;;;;;;5043275;28;20017;-89
2023/10/15 00:46:54;;;;;;;0.10;0.10;;;9.60;99.90;;;;;;5025665;28;20056;-90
2023/10/15 00:49:25;;;;;;;0.30;0.30;;;9.60;99.90;;;;;;5027814;28;20025;-90
2023/10/15 00:51:51;;;;;;;0.20;0.20;;;9.60;99.90;;;;;;5042687;28;20048;-90
2023/10/15 00:54:18;;;;;;;0.10;0.10;;;9.60;99.90;;;;;;5019599;28;20076;-90
2023/10/15 00:56:47;;;;;;;0.10;0.10;;;9.70;99.90;;;;;;5019712;28;20131;-89
2023/10/15 01:01:54;;;;;;;0.20;0.20;;;9.70;99.90;;;;;;5043021;28;20033;-89
2023/10/15 01:04:32;;;;;;;0.15;0.15;;;9.80;99.90;;;;;;5044642;28;20094;-90
2023/10/15 01:07:04;;;;;;;0.10;0.10;;;9.80;99.90;;;;;;5023187;28;20252;-89
2023/10/15 01:09:30;;;;;;;0.10;0.10;;;9.90;99.90;;;;;;5044708;28;20036;-90
2023/10/15 01:11:58;;;;;;;0.10;0.10;;;9.90;99.90;;;;;;5044417;28;20189;-89
2023/10/15 01:14:31;;;;;;;0.22;0.22;;;9.90;99.90;;;;;;5024210;28;20800;-90
2023/10/15 01:16:59;;;;;;;7.53;0.30;;;10.00;99.90;;;;;;5043345;28;20029;-89
2023/10/15 01:19:32;;;;;;;0.10;0.10;;;10.00;99.90;;;;;;5042649;28;20201;-89
2023/10/15 01:22:04;;;;;;;0.20;0.20;;;10.00;99.90;;;;;;5027020;28;20025;-86
2023/10/15 01:24:37;;;;;;;0.20;0.20;;;10.00;99.90;;;;;;5040447;28;20479;-86
2023/10/15 01:27:09;;;;;;;0.13;0.13;;;10.00;99.90;;;;;;5022912;28;20024;-87
2023/10/15 01:29:47;;;;;;;0.32;0.32;;;10.00;99.90;;;;;;5042182;28;20103;-87
2023/10/15 01:32:18;;;;;;;0.10;0.10;;;10.10;99.90;;;;;;5021760;28;20091;-87
2023/10/15 01:34:45;;;;;;;0.10;0.10;;;10.00;99.90;;;;;;5026502;28;20112;-87
2023/10/15 01:39:47;;;;;;;0.10;0.10;;;10.00;99.90;;;;;;5040683;28;20028;-87
2023/10/15 01:50:32;;;;;;;0.20;0.20;;;9.80;99.90;;;;;;5039958;28;20128;-87
2023/10/15 01:53:01;;;;;;;;;;;9.80;99.90;;;;;;5019276;28;20032;-87
2023/10/15 01:55:29;;;;;;;0.10;0.10;;;9.80;99.90;;;;;;5023753;28;19962;-86
2023/10/15 01:58:00;;;;;;;0.10;0.10;;;9.70;99.90;;;;;;5026220;28;20040;-87
2023/10/15 02:00:43;;;;;;;0.10;0.10;;;9.70;99.90;;;;;;5024745;28;20056;-87
2023/10/15 02:03:13;;;;;;;0.20;0.20;;;9.70;99.90;;;;;;5043553;28;20132;-86
2023/10/15 02:05:42;;;;;;;0.20;0.20;;;9.70;99.90;;;;;;5030450;28;20040;-86
2023/10/15 02:08:08;;;;;;;0.15;0.15;;;9.80;99.90;;;;;;5041813;28;20121;-87
2023/10/15 02:10:38;;;;;;;0.10;0.10;;;9.80;99.90;;;;;;5041612;28;20464;-86
2023/10/15 02:13:04;;;;;;;0.20;0.20;;;9.80;99.90;;;;;;5027268;28;20027;-86
2023/10/15 02:15:37;;;;;;;0.43;0.43;;;9.80;99.90;;;;;;5039708;28;20112;-87
2023/10/15 02:18:05;;;;;;;0.20;0.20;;;9.80;99.90;;;;;;5016159;28;20292;-86
2023/10/15 02:20:44;;;;;;;0.10;0.10;;;9.80;99.90;;;;;;5024140;28;20025;-87
2023/10/15 02:23:11;;;;;;;0.10;0.10;;;9.70;99.90;;;;;;5029579;28;20041;-87
2023/10/15 02:25:52;;;;;;;0.10;0.10;;;9.60;99.90;;;;;;5023178;28;20024;-86
2023/10/15 02:28:23;;;;;;;0.10;0.10;;;9.50;99.90;;;;;;5041909;28;20062;-86
2023/10/15 02:30:49;;;;;;;0.10;0.10;;;9.40;99.90;;;;;;5039713;28;20021;-85
2023/10/15 02:33:17;;;;;;;0.20;0.20;;;9.40;99.90;;;;;;5042702;28;20173;-84
2023/10/15 02:35:47;;;;;;;0.20;0.20;;;9.30;99.90;;;;;;5039138;28;20041;-86
2023/10/15 02:38:13;;;;;;;0.15;0.15;;;9.10;99.90;;;;;;5024327;28;20028;-86
2023/10/15 02:43:56;;;;;;;0.20;0.20;;;9.00;99.90;;;;;;5025144;28;20041;-86
2023/10/15 02:46:36;;;;;;;0.20;0.20;;;8.80;99.90;;;;;;5038435;28;20033;-86
2023/10/15 02:49:06;;;;;;;0.13;0.13;;;8.70;99.90;;;;;;5023976;28;20100;-86
2023/10/15 02:51:35;;;;;;;0.20;0.20;;;8.80;99.90;;;;;;5041552;28;20685;-85
2023/10/15 02:54:18;;;;;;;0.10;0.10;;;8.90;99.90;;;;;;5040059;28;20040;-86
2023/10/15 02:56:45;;;;;;;0.30;0.30;;;8.90;99.90;;;;;;5024601;28;20032;-86
2023/10/15 02:59:10;;;;;;;0.30;0.30;;;9.00;99.90;;;;;;5023020;28;20388;-86
2023/10/15 03:01:38;;;;;;;0.10;0.10;;;9.00;99.90;;;;;;5026504;28;20040;-86
2023/10/15 03:04:09;;;;;;;0.20;0.20;;;9.00;99.90;;;;;;5035603;28;20041;-85
2023/10/15 03:06:35;;;;;;;0.10;0.10;;;9.10;99.90;;;;;;5045522;28;20056;-85
2023/10/15 03:09:00;;;;;;;0.25;0.25;;;9.00;99.90;;;;;;5041610;28;20126;-85
2023/10/15 03:11:32;;;;;;;0.20;0.20;;;9.00;99.90;;;;;;5028032;28;20083;-85
2023/10/15 03:14:00;;;;;;;0.20;0.20;;;9.10;99.90;;;;;;5023766;28;20465;-86
2023/10/15 03:16:35;;;;;;;0.15;0.15;;;9.10;99.90;;;;;;5026071;28;20021;-86
2023/10/15 03:19:17;;;;;;;0.20;0.20;;;9.10;99.90;;;;;;5029074;28;20021;-86
2023/10/15 03:21:45;;;;;;;0.20;0.20;;;9.20;99.90;;;;;;5027484;28;20405;-86
2023/10/15 03:24:14;;;;;;;0.30;0.30;;;9.10;99.90;;;;;;5036019;28;20587;-86
2023/10/15 03:26:47;;;;;;;0.30;0.30;;;9.00;99.90;;;;;;5043243;28;20024;-86
2023/10/15 03:29:15;;;;;;;0.20;0.20;;;9.10;99.90;;;;;;5027481;28;20028;-86
2023/10/15 03:31:46;;;;;;;0.20;0.20;;;9.10;99.90;;;;;;5027533;28;20067;-85
2023/10/15 03:36:47;;;;;;;0.20;0.20;;;8.90;99.90;;;;;;5043753;28;20020;-87
2023/10/15 03:39:16;;;;;;;0.20;0.20;;;9.10;99.90;;;;;;5028990;28;20146;-86
2023/10/15 03:41:43;;;;;;;0.13;0.13;;;9.10;99.90;;;;;;5022082;28;20021;-85
2023/10/15 03:44:11;;;;;;;0.38;0.38;;;9.10;99.90;;;;;;5021882;28;20249;-85
2023/10/15 03:46:37;;;;;;;0.35;0.35;;;9.10;99.90;;;;;;5038820;28;20106;-89
2023/10/15 03:49:08;;;;;;;0.10;0.10;;;9.20;99.90;;;;;;5025239;28;20082;-86
2023/10/15 03:51:48;;;;;;;0.15;0.15;;;9.20;99.90;;;;;;5044029;28;20017;-86
2023/10/15 03:54:17;;;;;;;0.13;0.13;;;9.20;99.90;;;;;;5036824;28;20482;-85
2023/10/15 03:56:43;;;;;;;0.20;0.20;;;9.20;99.90;;;;;;5044440;28;20032;-86
2023/10/15 03:59:11;;;;;;;0.10;0.10;;;9.20;99.90;;;;;;5026669;28;20025;-86
2023/10/15 04:01:43;;;;;;;0.13;0.13;;;9.20;99.90;;;;;;5044631;28;20024;-86
2023/10/15 04:04:15;;;;;;;0.20;0.20;;;9.20;99.90;;;;;;5020919;28;20033;-86
2023/10/15 04:06:45;;;;;;;0.10;0.10;;;9.20;99.90;;;;;;5025441;28;20028;-86
2023/10/15 04:09:13;;;;;;;0.10;0.10;;;9.20;99.90;;;;;;5036706;28;20037;-85
2023/10/15 04:11:44;;;;;;;0.10;0.10;;;9.20;99.90;;;;;;5042180;28;20013;-86
2023/10/15 04:14:28;;;;;;;0.10;0.10;;;9.30;99.90;;;;;;5041991;28;20044;-86
2023/10/15 04:16:54;;;;;;;0.10;0.10;;;9.30;99.90;;;;;;5021321;28;20436;-86
2023/10/15 04:19:21;;;;;;;0.10;0.10;;;9.30;99.90;;;;;;5042520;28;20079;-86
2023/10/15 04:21:47;;;;;;;0.10;0.10;;;9.30;99.90;;;;;;5025487;28;20036;-85
2023/10/15 04:24:27;;;;;;;0.20;0.20;;;9.40;99.90;;;;;;5032642;28;20021;-86
2023/10/15 04:26:52;;;;;;;0.10;0.10;;;9.30;99.90;;;;;;5042834;28;20044;-85
2023/10/15 04:29:18;;;;;;;0.10;0.10;;;9.30;99.90;;;;;;5043207;28;20067;-85
2023/10/15 04:31:47;;;;;;;0.17;0.17;;;9.30;99.90;;;;;;5035101;28;20056;-86
2023/10/15 04:34:18;;;;;;;0.50;0.50;;;9.30;99.90;;;;;;5025261;28;20689;-85
2023/10/15 04:36:45;;;;;;;0.20;0.20;;;9.20;99.90;;;;;;5025289;28;20039;-86
2023/10/15 04:39:13;;;;;;;0.10;0.10;;;9.20;99.90;;;;;;5016202;28;20028;-86
2023/10/15 04:41:40;;;;;;;0.10;0.10;;;9.20;99.90;;;;;;5043317;28;20029;-85
2023/10/15 04:44:11;;;;;;;0.10;0.10;;;9.20;99.90;;;;;;5029888;28;20017;-85
2023/10/15 04:46:41;;;;;;;0.20;0.20;;;9.20;99.90;;;;;;5027529;28;20425;-86
2023/10/15 04:49:07;;;;;;;0.10;0.10;;;9.20;99.90;;;;;;5043197;28;20074;-86
2023/10/15 04:51:42;;;;;;;0.28;0.28;;;9.20;99.90;;;;;;5025570;28;20025;-86
2023/10/15 04:54:09;;;;;;;0.20;0.20;;;9.20;99.90;;;;;;5026419;28;20381;-85
2023/10/15 04:56:36;;;;;;;0.10;0.10;;;9.10;99.90;;;;;;5025548;28;20059;-89
2023/10/15 04:59:02;;;;;;;0.20;0.20;;;9.20;99.90;;;;;;5034170;28;20053;-86
2023/10/15 05:01:30;;;;;;;0.10;0.10;;;9.10;99.90;;;;;;5015958;28;20071;-85
2023/10/15 05:03:56;;;;;;;0.10;0.10;;;9.10;99.90;;;;;;5027044;28;20449;-86
2023/10/15 05:06:22;;;;;;;0.20;0.20;;;9.20;99.90;;;;;;5032638;28;20079;-85
2023/10/15 05:08:48;;;;;;;0.10;0.10;;;9.20;99.90;;;;;;5035633;28;20079;-89
2023/10/15 05:11:17;;;;;;;0.15;0.15;;;9.20;99.90;;;;;;5040789;28;20028;-89
2023/10/15 05:13:42;;;;;;;0.20;0.20;;;9.20;99.90;;;;;;5025077;28;20029;-86
2023/10/15 05:16:08;;;;;;;0.10;0.10;;;9.30;99.90;;;;;;5022792;28;20095;-86
2023/10/15 05:18:34;;;;;;;0.10;0.10;;;9.30;99.90;;;;;;5041902;28;20028;-86
2023/10/15 05:21:00;;;;;;;0.10;0.10;;;9.30;99.90;;;;;;5065352;28;20017;-86
2023/10/15 05:23:26;;;;;;;0.10;0.10;;;9.30;99.90;;;;;;5045704;28;20035;-86
2023/10/15 05:25:54;;;;;;;0.10;0.10;;;9.20;99.90;;;;;;5049111;28;20052;-89
2023/10/15 05:28:20;;;;;;;0.10;0.10;;;9.20;99.90;;;;;;5020583;28;20564;-86
2023/10/15 05:30:46;;;;;;;0.10;0.10;;;9.20;99.90;;;;;;5027765;28;20112;-86
2023/10/15 05:33:12;;;;;;;0.20;0.20;;;9.20;99.90;;;;;;5035969;28;20115;-87
2023/10/15 05:35:40;;;;;;;0.13;0.13;;;9.30;99.90;;;;;;5028299;28;20036;-89
2023/10/15 05:38:08;;;;;;;0.10;0.10;;;9.30;99.90;;;;;;5044459;28;20088;-89
2023/10/15 05:40:37;;;;;;;0.10;0.10;;;9.30;99.90;;;;;;5043585;28;20029;-89
2023/10/15 05:43:04;;;;;;;0.10;0.10;;;9.40;99.90;;;;;;5047693;28;20029;-89
2023/10/15 05:45:30;;;;;;;0.10;0.10;;;9.40;99.90;;;;;;5029730;28;20065;-89
2023/10/15 05:47:56;;;;;;;0.10;0.10;;;9.40;99.90;;;;;;5043449;28;20049;-89
2023/10/15 05:50:21;;;;;;;0.10;0.10;;;9.30;99.90;;;;;;5029704;28;20532;-89
2023/10/15 05:52:49;;;;;;;0.10;0.10;;;9.30;99.90;;;;;;5040376;28;20070;-86
2023/10/15 05:55:19;;;;;;;0.10;0.10;;;9.30;99.90;;;;;;5027567;28;20047;-86
2023/10/15 05:57:48;;;;;;;0.10;0.10;;;9.40;99.90;;;;;;5023776;28;20087;-87
2023/10/15 06:00:26;;;;;;;0.10;0.10;;;9.30;99.90;;;;;;5026491;28;20057;-86
2023/10/15 06:02:58;;;;;;;0.10;0.10;;;9.30;99.90;;;;;;5043225;28;20041;-87
2023/10/15 06:05:24;;;;;;;0.10;0.10;;;9.30;99.90;;;;;;5027106;28;20021;-86
2023/10/15 06:07:50;;;;;;;0.10;0.10;;;9.30;99.90;;;;;;5028180;28;20562;-86
2023/10/15 06:10:16;;;;;;;0.10;0.10;;;9.30;99.90;;;;;;5024029;28;20029;-86
2023/10/15 06:12:42;;;;;;;0.10;0.10;;;9.30;99.90;;;;;;5027666;28;20434;-85
2023/10/15 06:15:09;;;;;;;0.10;0.10;;;9.20;99.90;;;;;;5029909;28;20324;-86
2023/10/15 06:17:35;;;;;;;0.10;0.10;;;9.30;99.90;;;;;;5026507;28;20029;-86
2023/10/15 06:20:24;;;;;;;0.03;0.03;;;9.30;99.90;;;;;;5045580;28;20048;-86
2023/10/15 06:22:49;;;;;;;0.10;0.10;;;9.20;99.90;;;;;;5044802;28;20090;-86
2023/10/15 06:25:18;;;;;;;0.10;0.10;;;9.30;99.90;;;;;;5027533;28;20037;-86
2023/10/15 06:27:44;;;;;;;0.20;0.20;;;9.30;99.90;;;;;;5041803;28;20025;-86
2023/10/15 06:30:17;;;;;;;0.10;0.10;;;9.30;99.90;;;;;;5044833;28;20025;-86
2023/10/15 06:32:49;;;;;;;0.10;0.10;;;9.20;99.90;;;;;;5025593;28;20026;-86
2023/10/15 06:35:19;;;;;;;0.20;0.20;;;9.20;99.90;;;;;;5029016;28;20035;-86
2023/10/15 06:37:46;;;;;;;0.10;0.10;;;9.10;99.90;;;;;;5047419;28;20025;-86
2023/10/15 06:40:13;;;;;;;0.20;0.20;;;9.20;99.90;;;;;;5027385;28;20021;-85
2023/10/15 06:42:40;;;;;;;0.10;0.10;;;9.20;99.90;;;;;;5033098;28;20111;-85
2023/10/15 06:45:06;;;;;;;0.10;0.10;;;9.10;99.90;;;;;;5036221;28;20025;-87
2023/10/15 06:47:33;;;;;;;0.10;0.10;;;9.20;99.90;;;;;;5029713;28;20041;-87
2023/10/15 06:49:59;;;;;;;0.10;0.10;;;9.20;99.90;;;;;;5048653;28;20025;-88
2023/10/15 06:52:24;;;;;;;0.10;0.10;;;9.10;99.90;;;;;;5033582;28;20047;-88
2023/10/15 06:54:50;;;;;;;0.20;0.20;;;9.20;99.90;;;;;;5046776;28;20520;-88
2023/10/15 06:57:18;;;;;;;0.10;0.10;;;9.20;99.90;;;;;;5031376;28;20033;-86
2023/10/15 06:59:44;;;;;;;0.20;0.20;;;9.30;99.90;;;;;;5030113;28;20032;-89
2023/10/15 07:02:10;;;;;;;0.40;0.40;;;9.30;99.90;;;;;;5033478;28;20029;-87
2023/10/15 07:04:36;;;;;;;0.20;0.20;;;9.30;99.90;;;;;;5038041;28;20029;-86
2023/10/15 07:07:01;;;;;;;0.20;0.20;;;9.20;99.90;;;;;;5068203;28;20090;-87
2023/10/15 07:09:27;;;;;;;0.10;0.10;;;9.20;99.90;;;;;;5059118;28;20032;-88
2023/10/15 07:11:53;;;;;;;0.15;0.15;;;9.30;99.90;;;;;;5029229;28;20024;-87
2023/10/15 07:14:19;;;;;;;0.30;0.30;;;9.40;99.90;;;;;;5030863;28;20028;-87
2023/10/15 07:16:45;;;;;;;0.10;0.10;;;9.50;99.90;;;;;;5046318;28;20045;-88
2023/10/15 07:19:11;;;;;;;0.20;0.20;;;9.50;99.90;;;;;;5029428;28;20051;-84
2023/10/15 07:21:37;;;;;;;0.17;0.17;;;9.40;99.90;;;;;;5047176;28;20032;-87
2023/10/15 07:24:05;;;;;;;0.10;0.10;;;9.30;99.90;;;;;;5033678;28;20025;-84
2023/10/15 07:26:31;;;;;;;0.10;0.10;;;9.20;99.90;;;;;;5047788;28;20023;-85
2023/10/15 07:28:57;;;;;;;0.13;0.13;;;9.20;99.90;;;;;;5040832;28;20020;-87
2023/10/15 07:31:22;;;;;;;0.10;0.10;;;9.30;99.90;;;;;;5035023;28;20017;-87
2023/10/15 07:33:48;;;;;;;0.10;0.10;;;9.30;99.90;;;;;;5051222;28;20021;-87
2023/10/15 07:36:13;;;;;;;0.10;0.10;;;9.40;99.90;;;;;;5031152;28;20129;-87
2023/10/15 07:38:39;;;;;;;0.10;0.10;;;9.50;99.90;;;;;;5033690;28;20028;-88
2023/10/15 07:41:09;;;;;;;0.20;0.20;;;9.50;99.90;;;;;;5036854;28;20393;-88
2023/10/15 07:43:34;;;;;;;0.10;0.10;;;9.60;99.90;;;;;;5030475;28;20032;-87
2023/10/15 07:46:00;;;;;;;0.10;0.10;;;9.70;99.90;;;;;;5047752;28;20622;-87
2023/10/15 07:48:27;;;;;;;0.10;0.10;;;9.80;99.90;;;;;;5028708;28;20013;-87
2023/10/15 07:50:53;;;;;;;0.10;0.10;;;9.80;99.90;;;;;;5027923;28;20427;-84
2023/10/15 07:53:18;;;;;;;0.10;0.10;;;9.90;99.90;;;;;;5028168;28;20025;-84
2023/10/15 07:55:44;;;;;;;0.13;0.13;;;9.90;99.90;;;;;;5021501;28;20492;-88
2023/10/15 07:58:11;;;;;;;0.10;0.10;;;9.80;99.90;;;;;;5037367;28;20033;-89
2023/10/15 08:00:36;;;;;;;0.30;0.30;;;9.80;99.90;;;;;;5027369;28;20630;-85
2023/10/15 08:03:05;;;;;;;0.20;0.20;;;9.80;99.90;;;;;;5026422;28;20082;-86
2023/10/15 08:05:31;;;;;;;0.10;0.10;;;9.90;99.90;;;;;;5029268;28;20025;-84
2023/10/15 08:07:57;;;;;;;0.25;0.25;;;10.00;99.90;;;;;;5031840;28;20030;-87
2023/10/15 08:10:24;;;;;;;0.63;0.43;;;10.10;99.90;;;;;;5026223;28;20029;-84
2023/10/15 08:12:51;;;;;;;0.10;0.10;;;10.20;99.90;;;;;;5022431;28;20044;-84
2023/10/15 08:15:18;;;;;;;0.20;0.20;;;10.20;99.90;;;;;;5022976;28;20168;-83
2023/10/15 08:17:43;;;;;;;0.10;0.10;;;10.20;99.90;;;;;;5020632;28;20094;-84
2023/10/15 08:20:09;;;;;;;0.20;0.20;;;10.10;99.90;;;;;;5019287;28;20512;-86
2023/10/15 08:22:44;;;;;;;0.30;0.20;;;10.10;99.90;;;;;;5029611;28;20055;-87
2023/10/15 08:25:13;;;;;;;0.20;0.20;;;10.10;99.90;;;;;;5023823;28;20284;-86
2023/10/15 08:27:44;;;;;;;0.30;0.30;;;10.30;99.90;;;;;;5025806;28;20025;-82
2023/10/15 08:30:12;;;;;;;0.10;0.10;;;10.40;99.90;;;;;;5024334;28;20503;-85
2023/10/15 08:32:41;;;;;;;0.10;0.10;;;10.60;99.90;;;;;;5028472;28;20033;-86
2023/10/15 08:35:13;;;;;;;0.10;0.10;;;10.70;99.90;;;;;;5025226;28;20040;-86
2023/10/15 08:37:39;;;;;;;0.10;0.10;;;10.80;99.90;;;;;;5033310;28;20445;-86
2023/10/15 08:40:08;;;;;;;0.20;0.20;;;11.00;99.90;;;;;;5039705;28;20312;-86
2023/10/15 08:42:50;;;;;;;0.15;0.15;;;10.90;99.90;;;;;;5019661;28;20029;-86
2023/10/15 08:45:22;;;;;;;0.10;0.10;;;10.90;99.90;;;;;;5027588;28;20029;-86
2023/10/15 08:47:49;;;;;;;0.10;0.10;;;10.90;99.90;;;;;;5043306;28;20107;-85
2023/10/15 08:50:16;;;;;;;0.10;0.10;;;11.00;99.90;;;;;;5031496;28;20025;-88
2023/10/15 08:52:44;;;;;;;0.28;0.28;;;11.00;99.90;;;;;;5027013;28;20025;-88
2023/10/15 08:55:10;;;;;;;0.30;0.30;;;11.00;99.90;;;;;;5019109;28;20417;-87
2023/10/15 08:57:37;;;;;;;0.20;0.20;;;11.20;99.90;;;;;;5041291;28;20021;-87
2023/10/15 09:00:25;;;;;;;0.10;0.10;;;11.10;99.90;;;;;;5044131;28;20081;-86
2023/10/15 09:02:56;;;;;;;0.17;0.17;;;11.00;99.90;;;;;;5034968;28;20060;-84
2023/10/15 09:05:22;;;;;;;0.10;0.10;;;11.00;99.90;;;;;;5043064;28;20079;-86
2023/10/15 09:07:56;;;;;;;0.20;0.20;;;11.10;99.90;;;;;;5028885;28;20079;-87
2023/10/15 09:10:29;;;;;;;0.10;0.10;;;11.00;99.90;;;;;;5027033;28;20424;-85
2023/10/15 09:12:55;;;;;;;0.10;0.10;;;11.00;99.90;;;;;;5025211;28;20040;-87
2023/10/15 09:15:46;;;;;;;0.10;0.10;;;11.00;99.90;;;;;;5043137;28;20021;-87
2023/10/15 09:18:11;;;;;;;0.10;0.10;;;11.20;99.90;;;;;;5031294;28;20385;-86
2023/10/15 09:20:42;;;;;;;0.10;0.10;;;11.30;99.90;;;;;;5023187;28;20028;-84
2023/10/15 09:23:09;;;;;;;0.13;0.13;;;11.40;99.90;;;;;;5038322;28;20036;-87
2023/10/15 09:25:35;;;;;;;0.10;0.10;;;11.40;99.90;;;;;;5035060;28;20024;-88
2023/10/15 09:28:23;;;;;;;0.10;0.10;;;11.30;99.90;;;;;;4993386;28;20049;-87
2023/10/15 09:30:49;;;;;;;13.82;6.32;;;11.30;99.90;;;;;;4988304;28;20084;-87
2023/10/15 09:33:17;;;;;;;0.60;0.60;;;11.40;99.90;;;;;;4985422;28;20041;-87
2023/10/15 09:35:49;;;;;;;0.10;0.10;;;11.50;99.90;;;;;;5003262;28;20033;-88
2023/10/15 09:38:15;;;;;;;0.10;0.10;;;11.60;99.90;;;;;;4984193;28;20026;-87
2023/10/15 09:40:45;;;;;;;0.10;0.10;;;11.50;99.90;;;;;;4981693;28;20915;-86
2023/10/15 09:43:12;;;;;;;0.10;0.10;;;11.70;99.90;;;;;;4985780;28;20095;-84
2023/10/15 09:45:41;;;;;;;0.10;0.10;;;11.80;99.90;;;;;;5003319;28;20014;-84
2023/10/15 09:48:11;;;;;;;0.10;0.10;;;11.90;99.90;;;;;;5001547;28;20479;-83
2023/10/15 09:50:41;;;;;;;0.10;0.10;;;11.90;99.90;;;;;;4983152;28;20033;-85
2023/10/15 09:53:10;;;;;;;0.10;0.10;;;12.10;99.90;;;;;;4985646;28;20044;-83
2023/10/15 09:55:38;;;;;;;0.10;0.10;;;12.20;99.90;;;;;;4984421;28;20485;-86
2023/10/15 09:58:09;;;;;;;0.20;0.20;;;12.40;99.90;;;;;;4984113;28;20128;-86
2023/10/15 10:01:07;;;;;;;0.10;0.10;;;12.70;99.90;;;;;;5000435;28;20062;-84
2023/10/15 10:03:48;;;;;;;0.25;0.25;;;12.80;99.90;;;;;;4983635;28;20037;-83
2023/10/15 10:06:22;;;;;;;0.30;0.30;;;12.80;99.90;;;;;;5002275;28;20018;-87
2023/10/15 10:09:16;;;;;;;0.10;0.10;;;12.80;99.90;;;;;;5002929;28;20029;-86
2023/10/15 10:12:13;;;;;;;0.17;0.17;;;12.90;99.90;;;;;;5004862;28;20025;-86
2023/10/15 10:15:10;;;;;;;0.10;0.10;;;13.50;99.90;;;;;;5007243;28;20030;-84
2023/10/15 10:17:38;;;;;;;0.10;0.10;;;13.80;99.90;;;;;;5036501;28;20162;-84
2023/10/15 10:20:11;;;;;;;0.10;0.10;;;14.10;99.90;;;;;;5022020;28;20069;-83
2023/10/15 10:22:37;;;;;;;0.10;0.10;;;14.30;99.90;;;;;;5014619;28;20125;-83
2023/10/15 10:25:03;;;;;;;0.20;0.20;;;14.30;99.90;;;;;;4988701;28;20034;-84
2023/10/15 10:27:40;;;;;;;0.20;0.20;;;14.00;99.90;;;;;;5002824;28;20496;-84
2023/10/15 10:30:30;;;;;;;0.30;0.30;;;14.10;99.90;;;;;;5001198;28;20030;-84
2023/10/15 10:33:19;;;;;;;0.10;0.10;;;13.80;99.90;;;;;;4992140;28;20367;-86
2023/10/15 10:35:54;;;;;;;0.10;0.10;;;13.90;99.90;;;;;;4984879;28;20371;-83
2023/10/15 10:38:19;;;;;;;0.10;0.10;;;14.10;99.90;;;;;;4985453;28;20049;-86
2023/10/15 10:41:03;;;;;;;0.13;0.13;;;14.20;99.90;;;;;;4984269;28;20153;-84
2023/10/15 10:43:29;;;;;;;4.80;1.95;;;14.40;99.90;;;;;;4995253;28;20038;-79
2023/10/15 10:46:01;;;;;;;8.02;5.53;;;14.30;99.90;;;;;;5002714;28;20045;-82
2023/10/15 10:48:33;;;;;;;3.88;2.58;;;14.30;99.90;;;;;;4983116;28;20091;-83
2023/10/15 10:51:11;;;;;;;0.10;0.10;;;14.20;99.90;;;;;;4994399;28;20167;-86
2023/10/15 10:53:39;;;;;;;0.20;0.20;;;13.70;99.90;;;;;;4993605;28;20126;-84
2023/10/15 10:56:07;;;;;;;0.30;0.30;;;13.40;99.90;;;;;;5001339;28;20483;-83
2023/10/15 10:58:36;;;;;;;0.13;0.13;;;13.50;99.90;;;;;;5001001;28;20033;-84
2023/10/15 11:01:02;;;;;;;0.10;0.10;;;13.70;99.90;;;;;;4983580;28;20304;-84
2023/10/15 11:03:29;;;;;;;0.10;0.10;;;13.60;99.90;;;;;;5003353;28;20103;-83
2023/10/15 11:05:59;;;;;;;0.20;0.20;;;13.90;99.90;;;;;;4985312;28;20026;-84
2023/10/15 11:08:24;;;;;;;0.10;0.10;;;14.10;99.90;;;;;;5001624;28;20401;-83
2023/10/15 11:10:50;;;;;;;0.10;0.10;;;14.20;99.90;;;;;;4985061;28;20033;-84
2023/10/15 11:13:18;;;;;;;0.20;0.20;;;14.30;99.90;;;;;;4984110;28;20086;-84
2023/10/15 11:15:52;;;;;;;0.10;0.10;;;14.10;99.90;;;;;;5003402;28;20029;-84
2023/10/15 11:18:31;;;;;;;0.10;0.10;;;13.90;99.90;;;;;;5011667;28;20017;-83
2023/10/15 11:20:57;;;;;;;0.10;0.10;;;14.00;99.90;;;;;;4989653;28;20116;-83
2023/10/15 11:23:23;;;;;;;0.20;0.20;;;13.90;99.90;;;;;;4985945;28;20109;-84
2023/10/15 11:25:51;;;;;;;0.20;0.20;;;14.10;99.90;;;;;;4989565;28;20018;-83
2023/10/15 11:28:18;;;;;;;0.10;0.10;;;14.30;99.90;;;;;;4986354;28;20076;-83
2023/10/15 11:30:45;;;;;;;0.20;0.20;;;14.50;99.90;;;;;;5006202;28;20014;-83
2023/10/15 11:33:12;;;;;;;0.65;0.63;;;14.60;99.90;;;;;;4988781;28;20029;-82
2023/10/15 11:35:38;;;;;;;0.20;0.20;;;14.70;99.90;;;;;;5003547;28;20069;-83
2023/10/15 11:38:08;;;;;;;0.10;0.10;;;14.80;99.90;;;;;;4984700;28;20034;-85
2023/10/15 11:40:38;;;;;;;0.10;0.10;;;14.60;99.90;;;;;;5019344;28;20033;-84
2023/10/15 11:43:32;;;;;;;0.20;0.20;;;14.50;99.90;;;;;;4998814;28;20393;-84
2023/10/15 11:46:07;;;;;;;0.10;0.10;;;14.40;99.90;;;;;;4985849;28;20038;-82
2023/10/15 11:48:37;;;;;;;0.10;0.10;;;14.50;99.90;;;;;;4989993;28;20128;-84
2023/10/15 11:51:08;;;;;;;0.25;0.25;;;14.50;99.90;;;;;;4986057;28;20072;-84
2023/10/15 11:53:34;;;;;;;0.10;0.10;;;14.70;99.90;;;;;;5005154;28;20030;-85
2023/10/15 11:56:02;;;;;;;0.10;0.10;;;14.70;99.90;;;;;;4987781;28;20037;-83
2023/10/15 11:58:31;;;;;;;0.30;0.30;;;14.90;99.90;;;;;;4984730;28;20034;-84
2023/10/15 12:01:01;;;;;;;0.20;0.20;;;15.00;99.90;;;;;;4994342;28;20534;-85
2023/10/15 12:03:26;;;;;;;0.10;0.10;;;15.30;99.90;;;;;;4975395;28;20482;-83
2023/10/15 12:05:52;;;;;;;0.20;0.20;;;15.50;99.90;;;;;;5002102;28;20112;-83
2023/10/15 12:08:21;;;;;;;0.10;0.10;;;15.60;99.90;;;;;;4985484;28;20513;-83
2023/10/15 12:10:47;;;;;;;0.10;0.10;;;15.70;99.20;;;;;;4984963;28;20575;-85
2023/10/15 12:13:17;;;;;;;0.20;0.20;;;15.70;98.10;;;;;;4985419;28;20029;-84
2023/10/15 12:15:42;;;;;;;0.20;0.20;;;15.30;98.10;;;;;;5003316;28;20033;-84
2023/10/15 12:18:08;;;;;;;0.45;0.30;;;15.20;99.10;;;;;;5003621;28;20037;-84
2023/10/15 12:20:34;;;;;;;0.20;0.20;;;15.00;98.60;;;;;;5005629;28;20037;-84
2023/10/15 12:23:00;;;;;;;0.10;0.10;;;14.40;99.10;;;;;;4985958;28;20029;-83
2023/10/15 12:25:25;;;;;;;0.10;0.10;;;14.40;99.90;;;;;;4986645;28;20026;-83
2023/10/15 12:28:08;;;;;;;0.20;0.20;;;14.70;99.90;;;;;;5006093;28;20037;-83
2023/10/15 12:30:42;;;;;;;0.10;0.10;;;14.90;99.80;;;;;;4984590;28;20029;-83
2023/10/15 12:33:07;;;;;;;0.22;0.22;;;14.90;99.90;;;;;;4988661;28;20084;-85
2023/10/15 12:35:36;;;;;;;0.15;0.15;;;14.90;99.10;;;;;;4987829;28;20492;-83
2023/10/15 12:38:02;;;;;;;0.20;0.20;;;14.90;99.30;;;;;;4988842;28;20085;-83
2023/10/15 12:40:34;;;;;;;0.20;0.20;;;14.90;99.50;;;;;;5007217;28;20076;-84
2023/10/15 12:43:00;;;;;;;0.38;0.38;;;14.90;99.30;;;;;;4988776;28;20022;-83
2023/10/15 12:45:26;;;;;;;0.20;0.20;;;14.90;99.90;;;;;;4988752;28;20432;-82
2023/10/15 12:47:52;;;;;;;0.10;0.10;;;14.90;99.90;;;;;;4985846;28;20026;-82
2023/10/15 12:50:18;;;;;;;0.10;0.10;;;15.00;99.90;;;;;;5005659;28;20025;-82
2023/10/15 12:52:46;;;;;;;0.17;0.17;;;15.00;99.50;;;;;;5005758;28;20087;-84
2023/10/15 12:55:18;;;;;;;0.10;0.10;;;15.20;98.90;;;;;;5006313;28;20768;-83
2023/10/15 12:57:46;;;;;;;0.10;0.10;;;15.10;98.10;;;;;;5003034;28;20609;-83
2023/10/15 13:00:17;;;;;;;0.20;0.20;;;15.10;98.90;;;;;;4985586;28;20030;-84
2023/10/15 13:02:45;;;;;;;0.20;0.20;;;14.90;98.20;;;;;;4985299;28;20033;-83
2023/10/15 13:05:13;;;;;;;0.10;0.10;;;14.80;99.10;;;;;;5003479;28;20125;-84
2023/10/15 13:07:42;;;;;;;0.40;0.20;;;14.90;98.90;;;;;;4986990;28;20117;-82
2023/10/15 13:10:09;;;;;;;0.20;0.20;;;14.90;99.50;;;;;;4985288;28;20034;-83
2023/10/15 13:12:39;;;;;;;0.10;0.10;;;14.80;97.80;;;;;;4984280;28;20190;-84
2023/10/15 13:15:07;;;;;;;0.10;0.10;;;15.10;97.80;;;;;;5004588;28;20481;-84
2023/10/15 13:17:34;;;;;;;0.10;0.10;;;15.20;95.90;;;;;;4987424;28;20036;-83
2023/10/15 13:20:06;;;;;;;0.20;0.20;;;15.40;97.20;;;;;;4992615;28;20014;-83
2023/10/15 13:22:32;;;;;;;5.23;0.30;;;15.60;96.90;;;;;;5015541;28;20018;-83